sensor_id;sensor_type;location;lat;lon;timestamp;pressure;altitude;pressure_sealevel;temperature
24740;BMP280;45234;48.148;17.128;2022-09-09T00:01:42;99841.09;;;17.74
24740;BMP280;45234;48.148;17.128;2022-09-09T00:04:53;99843.97;;;17.72
24740;BMP280;45234;48.148;17.128;2022-09-09T00:09:30;99858.81;;;17.67
24740;BMP280;45234;48.148;17.128;2022-09-09T00:12:01;99847.81;;;17.65
24740;BMP280;45234;48.148;17.128;2022-09-09T00:16:58;99850.91;;;17.62
24740;BMP280;45234;48.148;17.128;2022-09-09T00:24:53;99850.84;;;17.57
24740;BMP280;45234;48.148;17.128;2022-09-09T00:30:14;99845.56;;;17.52
24740;BMP280;45234;48.148;17.128;2022-09-09T00:32:44;99836.66;;;17.53
24740;BMP280;45234;48.148;17.128;2022-09-09T00:37:53;99833.41;;;17.46
24740;BMP280;45234;48.148;17.128;2022-09-09T00:42:59;99833.59;;;17.39
24740;BMP280;45234;48.148;17.128;2022-09-09T00:45:41;99840.13;;;17.36
24740;BMP280;45234;48.148;17.128;2022-09-09T00:48:12;99844.56;;;17.36
24740;BMP280;45234;48.148;17.128;2022-09-09T00:50:44;99842.22;;;17.34
24740;BMP280;45234;48.148;17.128;2022-09-09T00:58:16;99851.63;;;17.35
24740;BMP280;45234;48.148;17.128;2022-09-09T01:00:45;99854.00;;;17.37
24740;BMP280;45234;48.148;17.128;2022-09-09T01:08:42;99846.16;;;17.37
24740;BMP280;45234;48.148;17.128;2022-09-09T01:11:55;99846.94;;;17.38
24740;BMP280;45234;48.148;17.128;2022-09-09T01:16:39;99865.78;;;17.34
24740;BMP280;45234;48.148;17.128;2022-09-09T01:19:08;99853.97;;;17.32
24740;BMP280;45234;48.148;17.128;2022-09-09T01:21:56;99851.34;;;17.32
24740;BMP280;45234;48.148;17.128;2022-09-09T01:24:34;99858.41;;;17.31
24740;BMP280;45234;48.148;17.128;2022-09-09T01:27:13;99854.19;;;17.30
24740;BMP280;45234;48.148;17.128;2022-09-09T01:29:41;99856.81;;;17.30
24740;BMP280;45234;48.148;17.128;2022-09-09T01:34:55;99864.91;;;17.29
24740;BMP280;45234;48.148;17.128;2022-09-09T01:37:22;99859.38;;;17.25
24740;BMP280;45234;48.148;17.128;2022-09-09T01:39:48;99859.38;;;17.25
24740;BMP280;45234;48.148;17.128;2022-09-09T01:42:17;99865.09;;;17.22
24740;BMP280;45234;48.148;17.128;2022-09-09T01:44:44;99866.84;;;17.17
24740;BMP280;45234;48.148;17.128;2022-09-09T01:47:11;99866.78;;;17.12
24740;BMP280;45234;48.148;17.128;2022-09-09T01:49:59;99866.25;;;17.10
24740;BMP280;45234;48.148;17.128;2022-09-09T01:52:29;99864.88;;;17.07
24740;BMP280;45234;48.148;17.128;2022-09-09T01:54:57;99863.84;;;17.08
24740;BMP280;45234;48.148;17.128;2022-09-09T01:57:31;99860.22;;;17.09
24740;BMP280;45234;48.148;17.128;2022-09-09T02:00:07;99855.00;;;17.09
24740;BMP280;45234;48.148;17.128;2022-09-09T02:02:48;99863.63;;;17.10
24740;BMP280;45234;48.148;17.128;2022-09-09T02:08:07;99860.44;;;17.08
24740;BMP280;45234;48.148;17.128;2022-09-09T02:11:02;99862.25;;;17.07
24740;BMP280;45234;48.148;17.128;2022-09-09T02:13:37;99866.69;;;17.07
24740;BMP280;45234;48.148;17.128;2022-09-09T02:16:10;99863.28;;;17.06
24740;BMP280;45234;48.148;17.128;2022-09-09T02:18:41;99866.41;;;17.03
24740;BMP280;45234;48.148;17.128;2022-09-09T02:21:11;99859.59;;;17.02
24740;BMP280;45234;48.148;17.128;2022-09-09T02:23:39;99860.38;;;17.03
24740;BMP280;45234;48.148;17.128;2022-09-09T02:26:11;99868.22;;;17.03
24740;BMP280;45234;48.148;17.128;2022-09-09T02:28:41;99868.47;;;17.01
24740;BMP280;45234;48.148;17.128;2022-09-09T02:31:08;99860.88;;;17.00
24740;BMP280;45234;48.148;17.128;2022-09-09T02:33:43;99868.47;;;17.01
24740;BMP280;45234;48.148;17.128;2022-09-09T02:36:11;99866.34;;;16.98
24740;BMP280;45234;48.148;17.128;2022-09-09T02:38:50;99870.56;;;16.99
24740;BMP280;45234;48.148;17.128;2022-09-09T02:41:30;99869.97;;;16.97
24740;BMP280;45234;48.148;17.128;2022-09-09T02:43:59;99873.38;;;16.97
24740;BMP280;45234;48.148;17.128;2022-09-09T02:49:08;99868.59;;;16.89
24740;BMP280;45234;48.148;17.128;2022-09-09T02:56:46;99867.34;;;16.97
24740;BMP280;45234;48.148;17.128;2022-09-09T02:59:14;99867.16;;;16.98
24740;BMP280;45234;48.148;17.128;2022-09-09T03:01:41;99868.97;;;16.98
24740;BMP280;45234;48.148;17.128;2022-09-09T03:04:09;99860.53;;;16.96
24740;BMP280;45234;48.148;17.128;2022-09-09T03:06:38;99857.91;;;16.96
24740;BMP280;45234;48.148;17.128;2022-09-09T03:09:14;99864.97;;;16.95
24740;BMP280;45234;48.148;17.128;2022-09-09T03:11:41;99864.72;;;16.97
24740;BMP280;45234;48.148;17.128;2022-09-09T03:14:08;99868.97;;;16.98
24740;BMP280;45234;48.148;17.128;2022-09-09T03:16:37;99866.56;;;16.96
24740;BMP280;45234;48.148;17.128;2022-09-09T03:19:04;99862.13;;;16.97
24740;BMP280;45234;48.148;17.128;2022-09-09T03:21:31;99864.72;;;16.97
24740;BMP280;45234;48.148;17.128;2022-09-09T03:23:59;99872.59;;;16.97
24740;BMP280;45234;48.148;17.128;2022-09-09T03:26:27;99870.75;;;16.97
24740;BMP280;45234;48.148;17.128;2022-09-09T03:28:54;99872.59;;;16.97
24740;BMP280;45234;48.148;17.128;2022-09-09T03:31:22;99868.97;;;16.98
24740;BMP280;45234;48.148;17.128;2022-09-09T03:33:51;99857.91;;;16.96
24740;BMP280;45234;48.148;17.128;2022-09-09T03:36:20;99852.75;;;17.01
24740;BMP280;45234;48.148;17.128;2022-09-09T03:38:47;99857.53;;;17.04
24740;BMP280;45234;48.148;17.128;2022-09-09T03:41:14;99850.69;;;17.03
24740;BMP280;45234;48.148;17.128;2022-09-09T03:43:42;99847.56;;;17.06
24740;BMP280;45234;48.148;17.128;2022-09-09T03:46:09;99846.53;;;17.07
24740;BMP280;45234;48.148;17.128;2022-09-09T03:48:37;99856.53;;;17.10
24740;BMP280;45234;48.148;17.128;2022-09-09T03:51:04;99856.53;;;17.10
24740;BMP280;45234;48.148;17.128;2022-09-09T03:53:32;99855.03;;;17.14
24740;BMP280;45234;48.148;17.128;2022-09-09T03:56:02;99852.94;;;17.16
24740;BMP280;45234;48.148;17.128;2022-09-09T03:58:30;99840.41;;;17.18
24740;BMP280;45234;48.148;17.128;2022-09-09T04:01:05;99847.00;;;17.21
24740;BMP280;45234;48.148;17.128;2022-09-09T04:03:33;99850.19;;;17.23
24740;BMP280;45234;48.148;17.128;2022-09-09T04:06:02;99847.31;;;17.24
24740;BMP280;45234;48.148;17.128;2022-09-09T04:08:31;99852.06;;;17.27
24740;BMP280;45234;48.148;17.128;2022-09-09T04:10:59;99854.19;;;17.30
24740;BMP280;45234;48.148;17.128;2022-09-09T04:13:28;99857.94;;;17.34
24740;BMP280;45234;48.148;17.128;2022-09-09T04:15:57;99854.25;;;17.35
24740;BMP280;45234;48.148;17.128;2022-09-09T04:18:25;99848.28;;;17.40
24740;BMP280;45234;48.148;17.128;2022-09-09T04:20:52;99854.63;;;17.44
24740;BMP280;45234;48.148;17.128;2022-09-09T04:23:23;99863.28;;;17.45
24740;BMP280;45234;48.148;17.128;2022-09-09T04:25:51;99862.50;;;17.44
24740;BMP280;45234;48.148;17.128;2022-09-09T04:28:21;99864.84;;;17.46
24740;BMP280;45234;48.148;17.128;2022-09-09T04:30:49;99874.84;;;17.49
24740;BMP280;45234;48.148;17.128;2022-09-09T04:33:16;99867.00;;;17.49
24740;BMP280;45234;48.148;17.128;2022-09-09T04:35:45;99873.81;;;17.50
24740;BMP280;45234;48.148;17.128;2022-09-09T04:38:14;99877.28;;;17.55
24740;BMP280;45234;48.148;17.128;2022-09-09T04:40:43;99877.03;;;17.57
24740;BMP280;45234;48.148;17.128;2022-09-09T04:43:10;99880.75;;;17.61
24740;BMP280;45234;48.148;17.128;2022-09-09T04:45:41;99880.81;;;17.66
24740;BMP280;45234;48.148;17.128;2022-09-09T04:48:09;99880.06;;;17.70
24740;BMP280;45234;48.148;17.128;2022-09-09T04:50:36;99877.44;;;17.70
24740;BMP280;45234;48.148;17.128;2022-09-09T04:53:04;99883.03;;;17.74
24740;BMP280;45234;48.148;17.128;2022-09-09T04:55:34;99885.66;;;17.74
24740;BMP280;45234;48.148;17.128;2022-09-09T04:58:04;99881.66;;;17.71
24740;BMP280;45234;48.148;17.128;2022-09-09T05:00:33;99882.25;;;17.73
24740;BMP280;45234;48.148;17.128;2022-09-09T05:03:04;99888.56;;;17.78
24740;BMP280;45234;48.148;17.128;2022-09-09T05:05:33;99892.06;;;17.83
24740;BMP280;45234;48.148;17.128;2022-09-09T05:08:04;99888.06;;;17.81
24740;BMP280;45234;48.148;17.128;2022-09-09T05:10:32;99893.88;;;17.83
24740;BMP280;45234;48.148;17.128;2022-09-09T05:13:00;99887.88;;;17.87
24740;BMP280;45234;48.148;17.128;2022-09-09T05:15:29;99899.75;;;17.95
24740;BMP280;45234;48.148;17.128;2022-09-09T05:17:59;99900.13;;;18.03
24740;BMP280;45234;48.148;17.128;2022-09-09T05:20:31;99908.84;;;18.14
24740;BMP280;45234;48.148;17.128;2022-09-09T05:22:59;99905.31;;;18.25
24740;BMP280;45234;48.148;17.128;2022-09-09T05:27:34;99905.69;;;18.39
24740;BMP280;45234;48.148;17.128;2022-09-09T05:30:02;99907.88;;;18.47
24740;BMP280;45234;48.148;17.128;2022-09-09T05:32:30;99912.91;;;18.54
24740;BMP280;45234;48.148;17.128;2022-09-09T05:35:00;99901.88;;;18.57
24740;BMP280;45234;48.148;17.128;2022-09-09T05:37:29;99914.28;;;18.61
24740;BMP280;45234;48.148;17.128;2022-09-09T05:39:57;99908.59;;;18.69
24740;BMP280;45234;48.148;17.128;2022-09-09T05:42:29;99916.06;;;18.93
24740;BMP280;45234;48.148;17.128;2022-09-09T05:44:58;99911.81;;;19.34
24740;BMP280;45234;48.148;17.128;2022-09-09T05:47:26;99899.84;;;19.73
24740;BMP280;45234;48.148;17.128;2022-09-09T05:49:55;99906.78;;;19.94
24740;BMP280;45234;48.148;17.128;2022-09-09T05:52:22;99906.00;;;20.29
24740;BMP280;45234;48.148;17.128;2022-09-09T05:54:50;99913.28;;;21.03
24740;BMP280;45234;48.148;17.128;2022-09-09T05:57:17;99912.13;;;22.13
24740;BMP280;45234;48.148;17.128;2022-09-09T05:59:46;99905.31;;;23.12
24740;BMP280;45234;48.148;17.128;2022-09-09T06:02:13;99909.84;;;23.86
24740;BMP280;45234;48.148;17.128;2022-09-09T06:04:41;99902.41;;;24.48
24740;BMP280;45234;48.148;17.128;2022-09-09T06:07:08;99894.69;;;25.01
24740;BMP280;45234;48.148;17.128;2022-09-09T06:09:36;99902.97;;;25.35
24740;BMP280;45234;48.148;17.128;2022-09-09T06:12:06;99909.06;;;25.36
24740;BMP280;45234;48.148;17.128;2022-09-09T06:14:35;99909.97;;;25.54
24740;BMP280;45234;48.148;17.128;2022-09-09T06:17:03;99911.13;;;25.61
24740;BMP280;45234;48.148;17.128;2022-09-09T06:19:30;99909.34;;;26.01
24740;BMP280;45234;48.148;17.128;2022-09-09T06:21:59;99909.44;;;25.88
24740;BMP280;45234;48.148;17.128;2022-09-09T06:24:28;99910.91;;;26.02
24740;BMP280;45234;48.148;17.128;2022-09-09T06:26:58;99917.25;;;26.63
24740;BMP280;45234;48.148;17.128;2022-09-09T06:29:28;99906.66;;;26.89
24740;BMP280;45234;48.148;17.128;2022-09-09T06:31:56;99904.47;;;26.82
24740;BMP280;45234;48.148;17.128;2022-09-09T06:34:25;99902.47;;;27.31
24740;BMP280;45234;48.148;17.128;2022-09-09T06:36:55;99904.16;;;27.09
24740;BMP280;45234;48.148;17.128;2022-09-09T06:39:27;99901.13;;;26.68
24740;BMP280;45234;48.148;17.128;2022-09-09T06:41:54;99889.09;;;26.70
24740;BMP280;45234;48.148;17.128;2022-09-09T06:44:41;99897.00;;;26.45
24740;BMP280;45234;48.148;17.128;2022-09-09T06:47:12;99892.66;;;26.40
24740;BMP280;45234;48.148;17.128;2022-09-09T06:49:41;99902.91;;;26.73
24740;BMP280;45234;48.148;17.128;2022-09-09T06:52:14;99902.91;;;27.33
24740;BMP280;45234;48.148;17.128;2022-09-09T06:54:41;99897.16;;;27.13
24740;BMP280;45234;48.148;17.128;2022-09-09T06:57:08;99895.28;;;27.05
24740;BMP280;45234;48.148;17.128;2022-09-09T06:59:56;99903.53;;;27.47
24740;BMP280;45234;48.148;17.128;2022-09-09T07:02:24;99893.59;;;27.73
24740;BMP280;45234;48.148;17.128;2022-09-09T07:04:53;99907.53;;;27.79
24740;BMP280;45234;48.148;17.128;2022-09-09T07:07:19;99917.59;;;28.20
24740;BMP280;45234;48.148;17.128;2022-09-09T07:09:47;99917.09;;;28.26
24740;BMP280;45234;48.148;17.128;2022-09-09T07:12:15;99913.22;;;28.06
24740;BMP280;45234;48.148;17.128;2022-09-09T07:14:51;99914.19;;;28.11
24740;BMP280;45234;48.148;17.128;2022-09-09T07:17:18;99910.28;;;27.99
24740;BMP280;45234;48.148;17.128;2022-09-09T07:19:45;99914.19;;;28.11
24740;BMP280;45234;48.148;17.128;2022-09-09T07:22:14;99914.31;;;28.14
24740;BMP280;45234;48.148;17.128;2022-09-09T07:24:42;99907.13;;;28.06
24740;BMP280;45234;48.148;17.128;2022-09-09T07:27:14;99903.44;;;27.81
24740;BMP280;45234;48.148;17.128;2022-09-09T07:29:42;99910.78;;;27.84
24740;BMP280;45234;48.148;17.128;2022-09-09T07:32:10;99914.03;;;28.07
24740;BMP280;45234;48.148;17.128;2022-09-09T07:34:38;99911.56;;;28.31
24740;BMP280;45234;48.148;17.128;2022-09-09T07:37:05;99914.16;;;28.40
24740;BMP280;45234;48.148;17.128;2022-09-09T07:39:33;99915.19;;;28.56
24740;BMP280;45234;48.148;17.128;2022-09-09T07:42:01;99915.22;;;28.77
24740;BMP280;45234;48.148;17.128;2022-09-09T07:44:28;99916.63;;;28.53
24740;BMP280;45234;48.148;17.128;2022-09-09T07:47:03;99908.59;;;28.62
24740;BMP280;45234;48.148;17.128;2022-09-09T07:49:35;99904.03;;;28.63
24740;BMP280;45234;48.148;17.128;2022-09-09T07:52:04;99900.34;;;28.46
24740;BMP280;45234;48.148;17.128;2022-09-09T07:54:33;99907.72;;;28.20
24740;BMP280;45234;48.148;17.128;2022-09-09T07:57:02;99907.91;;;28.06
24740;BMP280;45234;48.148;17.128;2022-09-09T07:59:34;99906.22;;;28.02
24740;BMP280;45234;48.148;17.128;2022-09-09T08:02:02;99901.22;;;28.00
24740;BMP280;45234;48.148;17.128;2022-09-09T08:04:31;99913.19;;;28.24
24740;BMP280;45234;48.148;17.128;2022-09-09T08:07:00;99909.69;;;28.32
24740;BMP280;45234;48.148;17.128;2022-09-09T08:09:30;99905.00;;;28.29
24740;BMP280;45234;48.148;17.128;2022-09-09T08:12:06;99896.75;;;28.51
24740;BMP280;45234;48.148;17.128;2022-09-09T08:14:35;99898.94;;;28.70
24740;BMP280;45234;48.148;17.128;2022-09-09T08:17:02;99899.81;;;28.32
24740;BMP280;45234;48.148;17.128;2022-09-09T08:19:32;99906.63;;;28.13
24740;BMP280;45234;48.148;17.128;2022-09-09T08:22:07;99901.25;;;28.30
24740;BMP280;45234;48.148;17.128;2022-09-09T08:24:38;99896.44;;;28.15
24740;BMP280;45234;48.148;17.128;2022-09-09T08:27:06;99903.78;;;28.18
24740;BMP280;45234;48.148;17.128;2022-09-09T08:29:34;99903.06;;;28.38
24740;BMP280;45234;48.148;17.128;2022-09-09T08:32:01;99907.81;;;28.62
24740;BMP280;45234;48.148;17.128;2022-09-09T08:34:29;99903.31;;;28.95
24740;BMP280;45234;48.148;17.128;2022-09-09T08:37:00;99916.44;;;29.21
24740;BMP280;45234;48.148;17.128;2022-09-09T08:39:33;99908.91;;;29.35
24740;BMP280;45234;48.148;17.128;2022-09-09T08:47:19;99914.34;;;29.71
24740;BMP280;45234;48.148;17.128;2022-09-09T08:52:47;99905.28;;;29.39
24740;BMP280;45234;48.148;17.128;2022-09-09T08:55:38;99903.22;;;29.04
24740;BMP280;45234;48.148;17.128;2022-09-09T08:58:10;99903.38;;;29.40
24740;BMP280;45234;48.148;17.128;2022-09-09T09:00:51;99899.53;;;29.29
24740;BMP280;45234;48.148;17.128;2022-09-09T09:09:04;99908.03;;;29.31
24740;BMP280;45234;48.148;17.128;2022-09-09T09:11:40;99907.66;;;28.99
24740;BMP280;45234;48.148;17.128;2022-09-09T09:14:12;99905.03;;;28.70
24740;BMP280;45234;48.148;17.128;2022-09-09T09:19:16;99903.16;;;28.91
24740;BMP280;45234;48.148;17.128;2022-09-09T09:27:07;99912.38;;;28.32
24740;BMP280;45234;48.148;17.128;2022-09-09T09:29:39;99904.06;;;28.25
24740;BMP280;45234;48.148;17.128;2022-09-09T09:32:30;99897.66;;;28.26
24740;BMP280;45234;48.148;17.128;2022-09-09T09:34:58;99895.50;;;28.40
24740;BMP280;45234;48.148;17.128;2022-09-09T09:37:27;99900.97;;;28.23
24740;BMP280;45234;48.148;17.128;2022-09-09T09:40:13;99900.25;;;28.05
24740;BMP280;45234;48.148;17.128;2022-09-09T09:43:00;99897.47;;;27.93
24740;BMP280;45234;48.148;17.128;2022-09-09T09:48:02;99896.22;;;27.90
24740;BMP280;45234;48.148;17.128;2022-09-09T09:50:35;99884.81;;;27.81
24740;BMP280;45234;48.148;17.128;2022-09-09T09:53:23;99879.66;;;27.76
24740;BMP280;45234;48.148;17.128;2022-09-09T09:56:04;99884.25;;;27.67
24740;BMP280;45234;48.148;17.128;2022-09-09T09:58:55;99877.16;;;27.62
24740;BMP280;45234;48.148;17.128;2022-09-09T10:03:57;99874.75;;;27.23
24740;BMP280;45234;48.148;17.128;2022-09-09T10:08:58;99871.59;;;26.87
24740;BMP280;45234;48.148;17.128;2022-09-09T10:11:38;99864.84;;;26.81
24740;BMP280;45234;48.148;17.128;2022-09-09T10:19:04;99861.53;;;26.41
24740;BMP280;45234;48.148;17.128;2022-09-09T10:29:30;99863.28;;;26.71
24740;BMP280;45234;48.148;17.128;2022-09-09T10:37:13;99858.28;;;27.47
24740;BMP280;45234;48.148;17.128;2022-09-09T10:39:43;99858.75;;;27.49
24740;BMP280;45234;48.148;17.128;2022-09-09T10:42:14;99859.19;;;27.51
24740;BMP280;45234;48.148;17.128;2022-09-09T10:57:16;99866.63;;;27.83
24740;BMP280;45234;48.148;17.128;2022-09-09T10:59:48;99867.25;;;27.89
24740;BMP280;45234;48.148;17.128;2022-09-09T11:02:19;99856.72;;;27.92
24740;BMP280;45234;48.148;17.128;2022-09-09T11:04:51;99866.50;;;27.80
24740;BMP280;45234;48.148;17.128;2022-09-09T11:07:41;99871.25;;;27.57
24740;BMP280;45234;48.148;17.128;2022-09-09T11:10:13;99869.09;;;27.42
24740;BMP280;45234;48.148;17.128;2022-09-09T11:12:40;99869.72;;;27.47
24740;BMP280;45234;48.148;17.128;2022-09-09T11:15:14;99859.84;;;27.39
24740;BMP280;45234;48.148;17.128;2022-09-09T11:17:44;99868.59;;;27.57
24740;BMP280;45234;48.148;17.128;2022-09-09T11:20:14;99866.97;;;27.73
24740;BMP280;45234;48.148;17.128;2022-09-09T11:23:42;99871.03;;;27.79
24740;BMP280;45234;48.148;17.128;2022-09-09T11:25:40;99866.31;;;27.76
24740;BMP280;45234;48.148;17.128;2022-09-09T11:36:13;99855.97;;;26.77
24740;BMP280;45234;48.148;17.128;2022-09-09T11:38:53;99856.72;;;26.60
24740;BMP280;45234;48.148;17.128;2022-09-09T11:41:32;99854.84;;;26.69
24740;BMP280;45234;48.148;17.128;2022-09-09T11:43:59;99861.13;;;26.90
24740;BMP280;45234;48.148;17.128;2022-09-09T11:46:36;99860.84;;;27.17
24740;BMP280;45234;48.148;17.128;2022-09-09T11:49:05;99865.50;;;27.38
24740;BMP280;45234;48.148;17.128;2022-09-09T11:51:33;99867.03;;;27.56
24740;BMP280;45234;48.148;17.128;2022-09-09T11:54:03;99867.59;;;27.79
24740;BMP280;45234;48.148;17.128;2022-09-09T11:56:49;99863.81;;;27.88
24740;BMP280;45234;48.148;17.128;2022-09-09T12:01:49;99855.91;;;28.00
24740;BMP280;45234;48.148;17.128;2022-09-09T12:04:21;99847.56;;;28.11
24740;BMP280;45234;48.148;17.128;2022-09-09T12:06:53;99846.63;;;28.36
24740;BMP280;45234;48.148;17.128;2022-09-09T12:09:32;99842.75;;;28.54
24740;BMP280;45234;48.148;17.128;2022-09-09T12:15:17;99839.88;;;28.59
24740;BMP280;45234;48.148;17.128;2022-09-09T12:17:24;99839.88;;;28.59
24740;BMP280;45234;48.148;17.128;2022-09-09T12:20:03;99836.34;;;28.46
24740;BMP280;45234;48.148;17.128;2022-09-09T12:22:36;99829.31;;;28.21
24740;BMP280;45234;48.148;17.128;2022-09-09T12:27:36;99819.28;;;27.89
24740;BMP280;45234;48.148;17.128;2022-09-09T12:30:11;99819.03;;;27.73
24740;BMP280;45234;48.148;17.128;2022-09-09T12:32:40;99827.56;;;27.41
24740;BMP280;45234;48.148;17.128;2022-09-09T12:35:12;99819.63;;;27.24
24740;BMP280;45234;48.148;17.128;2022-09-09T12:37:58;99823.28;;;26.93
24740;BMP280;45234;48.148;17.128;2022-09-09T12:40:29;99816.22;;;26.63
24740;BMP280;45234;48.148;17.128;2022-09-09T12:42:56;99812.91;;;26.49
24740;BMP280;45234;48.148;17.128;2022-09-09T12:45:24;99804.31;;;26.52
24740;BMP280;45234;48.148;17.128;2022-09-09T12:47:58;99820.44;;;26.64
24740;BMP280;45234;48.148;17.128;2022-09-09T12:50:31;99816.53;;;26.87
24740;BMP280;45234;48.148;17.128;2022-09-09T12:52:59;99808.06;;;27.20
24740;BMP280;45234;48.148;17.128;2022-09-09T12:55:28;99805.63;;;27.44
24740;BMP280;45234;48.148;17.128;2022-09-09T12:57:57;99794.75;;;27.37
24740;BMP280;45234;48.148;17.128;2022-09-09T13:00:26;99794.72;;;27.28
24740;BMP280;45234;48.148;17.128;2022-09-09T13:02:54;99795.63;;;27.41
24740;BMP280;45234;48.148;17.128;2022-09-09T13:05:25;99787.28;;;27.59
24740;BMP280;45234;48.148;17.128;2022-09-09T13:08:03;99782.94;;;27.84
24740;BMP280;45234;48.148;17.128;2022-09-09T13:10:31;99785.69;;;27.96
24740;BMP280;45234;48.148;17.128;2022-09-09T13:13:21;99784.22;;;27.78
24740;BMP280;45234;48.148;17.128;2022-09-09T13:15:52;99767.28;;;27.83
24740;BMP280;45234;48.148;17.128;2022-09-09T13:18:24;99763.72;;;27.79
24740;BMP280;45234;48.148;17.128;2022-09-09T13:20:51;99760.97;;;27.87
24740;BMP280;45234;48.148;17.128;2022-09-09T13:23:19;99756.50;;;27.79
24740;BMP280;45234;48.148;17.128;2022-09-09T13:25:57;99754.75;;;27.83
24740;BMP280;45234;48.148;17.128;2022-09-09T13:28:26;99757.28;;;27.42
24740;BMP280;45234;48.148;17.128;2022-09-09T13:33:30;99747.81;;;27.06
24740;BMP280;45234;48.148;17.128;2022-09-09T13:36:02;99751.16;;;26.95
24740;BMP280;45234;48.148;17.128;2022-09-09T13:38:40;99765.38;;;26.99
24740;BMP280;45234;48.148;17.128;2022-09-09T13:41:19;99756.78;;;26.93
24740;BMP280;45234;48.148;17.128;2022-09-09T13:43:48;99758.47;;;27.06
24740;BMP280;45234;48.148;17.128;2022-09-09T13:46:30;99747.06;;;26.97
24740;BMP280;45234;48.148;17.128;2022-09-09T13:48:58;99749.41;;;27.07
24740;BMP280;45234;48.148;17.128;2022-09-09T13:51:28;99742.63;;;27.18
24740;BMP280;45234;48.148;17.128;2022-09-09T13:53:56;99756.06;;;27.22
24740;BMP280;45234;48.148;17.128;2022-09-09T13:56:24;99748.75;;;27.10
24740;BMP280;45234;48.148;17.128;2022-09-09T13:58:54;99745.63;;;27.00
24740;BMP280;45234;48.148;17.128;2022-09-09T14:01:21;99742.22;;;26.99
24740;BMP280;45234;48.148;17.128;2022-09-09T14:03:54;99748.16;;;26.96
24740;BMP280;45234;48.148;17.128;2022-09-09T14:06:21;99743.28;;;26.90
24740;BMP280;45234;48.148;17.128;2022-09-09T14:08:51;99739.41;;;26.87
24740;BMP280;45234;48.148;17.128;2022-09-09T14:11:19;99735.34;;;26.81
24740;BMP280;45234;48.148;17.128;2022-09-09T14:13:45;99735.66;;;26.71
24740;BMP280;45234;48.148;17.128;2022-09-09T14:16:13;99716.91;;;26.59
24740;BMP280;45234;48.148;17.128;2022-09-09T14:18:40;99724.09;;;26.67
24740;BMP280;45234;48.148;17.128;2022-09-09T14:21:09;99730.19;;;26.76
24740;BMP280;45234;48.148;17.128;2022-09-09T14:23:36;99726.75;;;26.84
24740;BMP280;45234;48.148;17.128;2022-09-09T14:26:05;99731.56;;;26.91
24740;BMP280;45234;48.148;17.128;2022-09-09T14:28:32;99723.75;;;26.94
24740;BMP280;45234;48.148;17.128;2022-09-09T14:31:20;99726.59;;;26.89
24740;BMP280;45234;48.148;17.128;2022-09-09T14:33:47;99724.69;;;26.81
24740;BMP280;45234;48.148;17.128;2022-09-09T14:36:14;99732.53;;;26.52
24740;BMP280;45234;48.148;17.128;2022-09-09T14:38:42;99731.13;;;26.46
24740;BMP280;45234;48.148;17.128;2022-09-09T14:41:10;99733.47;;;26.56
24740;BMP280;45234;48.148;17.128;2022-09-09T14:43:40;99734.75;;;26.67
24740;BMP280;45234;48.148;17.128;2022-09-09T14:46:07;99741.28;;;26.78
24740;BMP280;45234;48.148;17.128;2022-09-09T14:48:34;99740.03;;;26.58
24740;BMP280;45234;48.148;17.128;2022-09-09T14:51:08;99741.91;;;26.58
24740;BMP280;45234;48.148;17.128;2022-09-09T14:53:36;99743.03;;;26.31
24740;BMP280;45234;48.148;17.128;2022-09-09T14:58:35;99750.03;;;26.18
24740;BMP280;45234;48.148;17.128;2022-09-09T15:01:21;99751.22;;;26.04
24740;BMP280;45234;48.148;17.128;2022-09-09T15:03:53;99743.00;;;25.74
24740;BMP280;45234;48.148;17.128;2022-09-09T15:06:20;99736.50;;;25.50
24740;BMP280;45234;48.148;17.128;2022-09-09T15:08:47;99743.31;;;25.42
24740;BMP280;45234;48.148;17.128;2022-09-09T15:11:16;99740.81;;;25.37
24740;BMP280;45234;48.148;17.128;2022-09-09T15:13:43;99736.38;;;25.24
24740;BMP280;45234;48.148;17.128;2022-09-09T15:16:12;99728.34;;;25.15
24740;BMP280;45234;48.148;17.128;2022-09-09T15:18:40;99727.38;;;25.11
24740;BMP280;45234;48.148;17.128;2022-09-09T15:21:09;99733.06;;;24.96
24740;BMP280;45234;48.148;17.128;2022-09-09T15:23:37;99732.56;;;24.94
24740;BMP280;45234;48.148;17.128;2022-09-09T15:26:05;99725.91;;;24.96
24740;BMP280;45234;48.148;17.128;2022-09-09T15:28:32;99725.41;;;24.94
24740;BMP280;45234;48.148;17.128;2022-09-09T15:31:09;99721.84;;;24.99
24740;BMP280;45234;48.148;17.128;2022-09-09T15:33:37;99705.81;;;25.04
24740;BMP280;45234;48.148;17.128;2022-09-09T15:38:43;99687.97;;;24.96
24740;BMP280;45234;48.148;17.128;2022-09-09T15:41:11;99681.34;;;24.85
24740;BMP280;45234;48.148;17.128;2022-09-09T15:43:39;99683.09;;;24.89
24740;BMP280;45234;48.148;17.128;2022-09-09T15:46:31;99690.00;;;24.77
24740;BMP280;45234;48.148;17.128;2022-09-09T15:48:58;99692.03;;;24.80
24740;BMP280;45234;48.148;17.128;2022-09-09T15:51:25;99686.09;;;24.74
24740;BMP280;45234;48.148;17.128;2022-09-09T15:54:11;99683.41;;;24.66
24740;BMP280;45234;48.148;17.128;2022-09-09T15:56:39;99672.44;;;24.59
24740;BMP280;45234;48.148;17.128;2022-09-09T15:59:06;99672.53;;;24.53
24740;BMP280;45234;48.148;17.128;2022-09-09T16:01:33;99669.72;;;24.50
24740;BMP280;45234;48.148;17.128;2022-09-09T16:04:02;99675.41;;;24.43
24740;BMP280;45234;48.148;17.128;2022-09-09T16:06:30;99676.44;;;24.34
24740;BMP280;45234;48.148;17.128;2022-09-09T16:08:57;99678.28;;;24.33
24740;BMP280;45234;48.148;17.128;2022-09-09T16:11:26;99679.78;;;24.26
24740;BMP280;45234;48.148;17.128;2022-09-09T16:13:53;99688.09;;;24.33
24740;BMP280;45234;48.148;17.128;2022-09-09T16:16:24;99697.06;;;24.23
24740;BMP280;45234;48.148;17.128;2022-09-09T16:18:56;99702.34;;;24.23
24740;BMP280;45234;48.148;17.128;2022-09-09T16:21:27;99708.78;;;24.17
24740;BMP280;45234;48.148;17.128;2022-09-09T16:23:58;99721.78;;;24.19
24740;BMP280;45234;48.148;17.128;2022-09-09T16:26:26;99721.78;;;24.19
24740;BMP280;45234;48.148;17.128;2022-09-09T16:28:54;99726.53;;;24.17